createdAt,value
2023-02-13T00:01:47.718Z,79.64
2023-02-13T00:04:17.644Z,79.45
2023-02-13T00:06:48.525Z,79.50
2023-02-13T00:09:19.043Z,79.54
2023-02-13T00:11:48.448Z,79.37
2023-02-13T00:14:18.214Z,79.63
2023-02-13T00:16:48.344Z,79.41
2023-02-13T00:19:18.005Z,79.21
2023-02-13T00:21:48.359Z,78.78
2023-02-13T00:24:18.816Z,78.69
2023-02-13T00:26:48.848Z,78.22
2023-02-13T00:29:18.831Z,78.32
2023-02-13T00:31:49.471Z,77.77
2023-02-13T00:34:20.274Z,77.92
2023-02-13T00:36:53.090Z,78.07
2023-02-13T00:39:24.783Z,77.81
2023-02-13T00:41:55.307Z,78.15
2023-02-13T00:44:25.021Z,77.65
2023-02-13T00:46:55.413Z,77.40
2023-02-13T00:49:28.032Z,77.18
2023-02-13T00:51:58.468Z,76.99
2023-02-13T00:54:28.126Z,77.05
2023-02-13T00:56:58.269Z,77.16
2023-02-13T00:59:31.643Z,77.31
2023-02-13T01:02:03.007Z,77.31
2023-02-13T01:04:34.380Z,77.81
2023-02-13T01:07:05.049Z,77.61
2023-02-13T01:09:34.640Z,77.60
2023-02-13T01:12:04.261Z,77.68
2023-02-13T01:14:33.507Z,77.40
2023-02-13T01:17:02.534Z,78.03
2023-02-13T01:19:33.538Z,78.52
2023-02-13T01:22:03.734Z,78.28
2023-02-13T01:24:33.752Z,77.42
2023-02-13T01:27:04.021Z,77.14
2023-02-13T01:29:34.949Z,77.58
2023-02-13T01:32:05.481Z,77.91
2023-02-13T01:34:35.701Z,78.38
2023-02-13T01:37:06.785Z,79.38
2023-02-13T01:39:36.811Z,79.58
2023-02-13T01:42:16.844Z,79.44
2023-02-13T01:45:27.180Z,79.28
2023-02-13T01:48:16.752Z,78.93
2023-02-13T01:50:56.541Z,78.96
2023-02-13T01:53:34.389Z,78.64
2023-02-13T01:56:29.027Z,78.20
2023-02-13T01:59:06.375Z,77.79
2023-02-13T02:01:37.958Z,77.59
2023-02-13T02:04:13.571Z,77.77
2023-02-13T02:06:55.236Z,78.19
2023-02-13T02:09:33.230Z,78.14
2023-02-13T02:12:27.370Z,78.37
2023-02-13T02:15:00.814Z,78.49
2023-02-13T02:17:34.163Z,78.32
2023-02-13T02:20:15.312Z,78.18
2023-02-13T02:23:09.782Z,78.52
2023-02-13T02:25:58.497Z,78.41
2023-02-13T02:29:06.809Z,78.47
2023-02-13T02:32:05.680Z,78.05
2023-02-13T02:34:55.484Z,78.14
2023-02-13T02:37:43.832Z,77.92
2023-02-13T02:40:52.343Z,77.75
2023-02-13T02:43:22.573Z,77.49
2023-02-13T02:46:10.805Z,77.24
2023-02-13T02:49:21.491Z,76.87
2023-02-13T02:52:01.943Z,76.96
2023-02-13T02:54:52.555Z,77.32
2023-02-13T02:57:49.493Z,77.25
2023-02-13T03:00:46.064Z,77.02
2023-02-13T03:03:43.856Z,77.10
2023-02-13T03:06:25.886Z,77.53
2023-02-13T03:09:19.976Z,77.30
2023-02-13T03:12:15.697Z,77.31
2023-02-13T03:14:47.203Z,77.12
2023-02-13T03:17:37.498Z,77.66
2023-02-13T03:20:52.205Z,77.35
2023-02-13T03:24:08.048Z,76.95
2023-02-13T03:26:58.189Z,76.43
2023-02-13T03:30:03.707Z,76.35
2023-02-13T03:32:47.787Z,76.99
2023-02-13T03:36:05.548Z,76.89
2023-02-13T03:39:06.229Z,77.32
2023-02-13T03:41:56.904Z,77.62
2023-02-13T03:44:39.097Z,77.44
2023-02-13T03:47:13.148Z,77.33
2023-02-13T03:50:08.539Z,77.34
2023-02-13T03:52:54.185Z,77.50
2023-02-13T03:55:55.446Z,77.75
2023-02-13T03:59:07.989Z,77.55
2023-02-13T04:01:39.550Z,77.18
2023-02-13T04:04:42.606Z,78.07
2023-02-13T04:07:30.119Z,79.04
2023-02-13T04:10:06.437Z,78.15
2023-02-13T04:12:49.808Z,78.32
2023-02-13T04:15:40.190Z,78.49
2023-02-13T04:18:24.715Z,77.81
2023-02-13T04:20:54.262Z,77.23
2023-02-13T04:23:24.442Z,77.38
2023-02-13T04:26:05.251Z,77.26
2023-02-13T04:28:36.244Z,77.56
2023-02-13T04:31:06.671Z,77.15
2023-02-13T04:33:36.745Z,76.73
2023-02-13T04:36:08.490Z,76.61
2023-02-13T04:38:38.160Z,76.40
2023-02-13T04:41:08.934Z,76.37
2023-02-13T04:43:38.796Z,76.32
2023-02-13T04:46:09.431Z,76.18
2023-02-13T04:48:40.390Z,76.35
2023-02-13T04:51:10.226Z,76.45
2023-02-13T04:53:40.558Z,76.17
2023-02-13T04:56:09.727Z,76.12
2023-02-13T04:58:42.437Z,76.12
2023-02-13T05:01:16.423Z,76.25
2023-02-13T05:03:47.001Z,76.19
2023-02-13T05:06:17.240Z,76.14
2023-02-13T05:08:47.176Z,75.62
2023-02-13T05:11:16.524Z,76.17
2023-02-13T05:13:46.759Z,76.40
2023-02-13T05:16:16.161Z,76.64
2023-02-13T05:18:45.492Z,76.83
2023-02-13T05:21:39.834Z,76.90
2023-02-13T05:24:09.952Z,76.86
2023-02-13T05:26:39.460Z,76.47
2023-02-13T05:29:20.892Z,76.76
2023-02-13T05:31:54.534Z,76.60
2023-02-13T05:34:27.340Z,76.72
2023-02-13T05:36:57.054Z,76.54
2023-02-13T05:39:27.511Z,76.16
2023-02-13T05:41:56.727Z,76.08
2023-02-13T05:44:26.444Z,76.02
2023-02-13T05:46:57.499Z,76.30
2023-02-13T05:49:27.226Z,76.16
2023-02-13T05:51:58.337Z,76.18
2023-02-13T05:54:28.586Z,75.95
2023-02-13T05:56:58.272Z,76.60
2023-02-13T05:59:29.035Z,76.85
2023-02-13T06:01:58.942Z,76.49
2023-02-13T06:04:29.393Z,77.22
2023-02-13T06:06:58.362Z,77.25
2023-02-13T06:09:28.929Z,77.03
2023-02-13T06:11:58.916Z,77.15
2023-02-13T06:14:28.913Z,77.19
2023-02-13T06:16:57.950Z,77.15
2023-02-13T06:19:27.790Z,77.43
2023-02-13T06:21:56.994Z,77.02
2023-02-13T06:24:28.289Z,77.25
2023-02-13T06:26:58.355Z,77.19
2023-02-13T06:29:32.013Z,77.09
2023-02-13T06:32:01.264Z,77.40
2023-02-13T06:34:31.642Z,77.24
2023-02-13T06:37:01.629Z,76.88
2023-02-13T06:39:31.770Z,77.10
2023-02-13T06:42:01.820Z,77.11
2023-02-13T06:44:33.850Z,77.13
2023-02-13T06:47:04.180Z,77.58
2023-02-13T06:49:33.719Z,77.23
2023-02-13T06:52:03.881Z,77.11
2023-02-13T06:54:46.796Z,76.85
2023-02-13T06:57:18.319Z,76.92
2023-02-13T06:59:50.753Z,77.19
2023-02-13T07:02:21.223Z,77.15
2023-02-13T07:04:51.013Z,77.15
2023-02-13T07:07:20.491Z,76.74
2023-02-13T07:09:53.395Z,76.52
2023-02-13T07:12:23.375Z,76.52
2023-02-13T07:14:53.619Z,76.32
2023-02-13T07:17:23.442Z,76.16
2023-02-13T07:19:54.229Z,76.00
2023-02-13T07:22:24.080Z,75.67
2023-02-13T07:24:54.562Z,75.83
2023-02-13T07:27:25.221Z,75.33
2023-02-13T07:29:54.555Z,74.89
2023-02-13T07:32:27.404Z,74.92
2023-02-13T07:35:02.052Z,74.87
2023-02-13T07:37:33.057Z,74.25
2023-02-13T07:40:05.672Z,73.56
2023-02-13T07:42:36.465Z,73.11
2023-02-13T07:45:10.477Z,71.02
2023-02-13T07:47:40.007Z,71.09
2023-02-13T07:50:11.002Z,71.04
2023-02-13T07:52:40.841Z,70.67
2023-02-13T07:55:12.151Z,70.53
2023-02-13T07:57:42.229Z,70.02
2023-02-13T08:00:35.631Z,69.51
2023-02-13T08:03:05.765Z,68.88
2023-02-13T08:05:35.627Z,68.85
2023-02-13T08:08:07.698Z,68.47
2023-02-13T08:10:55.888Z,67.64
2023-02-13T08:13:28.057Z,66.31
2023-02-13T08:15:58.598Z,65.29
2023-02-13T08:18:28.313Z,65.19
2023-02-13T08:20:57.544Z,64.69
2023-02-13T08:23:27.396Z,64.07
2023-02-13T08:26:03.139Z,64.46
2023-02-13T08:28:33.553Z,63.14
2023-02-13T08:31:12.149Z,61.87
2023-02-13T08:33:43.215Z,62.03
2023-02-13T08:36:13.000Z,60.14
2023-02-13T08:38:42.993Z,60.53
2023-02-13T08:41:13.585Z,60.32
2023-02-13T08:43:44.291Z,57.96
2023-02-13T08:46:14.675Z,57.50
2023-02-13T08:48:44.788Z,57.26
2023-02-13T08:51:15.441Z,57.12
2023-02-13T08:53:45.158Z,55.72
2023-02-13T08:56:15.736Z,56.10
2023-02-13T08:58:50.517Z,56.48
2023-02-13T09:01:19.776Z,55.61
2023-02-13T09:03:49.974Z,54.67
2023-02-13T09:06:31.661Z,54.64
2023-02-13T09:09:01.886Z,54.57
2023-02-13T09:11:34.592Z,52.73
2023-02-13T09:14:07.514Z,53.49
2023-02-13T09:16:37.397Z,52.18
2023-02-13T09:19:08.142Z,51.84
2023-02-13T09:21:37.879Z,51.42
2023-02-13T09:24:09.620Z,52.18
2023-02-13T09:26:38.655Z,51.24
2023-02-13T09:29:09.146Z,51.32
2023-02-13T09:31:39.178Z,49.99
2023-02-13T09:34:09.642Z,48.71
2023-02-13T09:36:39.461Z,47.97
2023-02-13T09:39:10.689Z,47.37
2023-02-13T09:41:44.658Z,46.64
2023-02-13T09:44:35.514Z,45.38
2023-02-13T09:47:40.196Z,44.11
2023-02-13T09:50:25.788Z,45.18
2023-02-13T09:52:58.560Z,45.70
2023-02-13T09:55:54.887Z,45.33
2023-02-13T09:58:55.135Z,45.23
2023-02-13T10:01:34.183Z,43.24
2023-02-13T10:04:25.929Z,44.34
2023-02-13T10:07:22.661Z,42.41
2023-02-13T10:10:09.098Z,42.30
2023-02-13T10:13:04.438Z,41.47
2023-02-13T10:15:48.542Z,41.74
2023-02-13T10:18:26.395Z,40.68
2023-02-13T10:21:02.759Z,40.16
2023-02-13T10:23:50.901Z,39.46
2023-02-13T10:26:46.420Z,39.03
2023-02-13T10:29:40.858Z,38.92
2023-02-13T10:32:15.511Z,38.48
2023-02-13T10:34:47.849Z,38.91
2023-02-13T10:37:19.695Z,38.09
2023-02-13T10:39:56.544Z,37.29
2023-02-13T10:43:34.269Z,37.05
2023-02-13T10:46:27.624Z,36.89
2023-02-13T10:49:30.876Z,36.94
2023-02-13T10:52:10.558Z,36.72
2023-02-13T10:55:17.960Z,36.36
2023-02-13T10:58:05.385Z,36.16
2023-02-13T11:01:00.707Z,35.11
2023-02-13T11:03:32.138Z,34.69
2023-02-13T11:06:08.691Z,34.36
2023-02-13T11:08:47.998Z,34.16
2023-02-13T11:11:40.839Z,33.72
2023-02-13T11:14:23.860Z,33.79
2023-02-13T11:17:06.201Z,32.82
2023-02-13T11:19:59.646Z,32.34
2023-02-13T11:22:36.110Z,32.88
2023-02-13T11:25:30.755Z,32.01
2023-02-13T11:28:19.083Z,31.08
2023-02-13T11:30:54.489Z,32.06
2023-02-13T11:33:29.178Z,31.43
2023-02-13T11:36:33.502Z,31.57
2023-02-13T11:39:07.645Z,31.29
2023-02-13T11:41:46.283Z,31.01
2023-02-13T11:44:29.035Z,31.13
2023-02-13T11:47:01.403Z,31.48
2023-02-13T11:49:36.639Z,31.69
2023-02-13T11:52:24.303Z,32.73
2023-02-13T11:55:05.106Z,33.04
2023-02-13T11:57:38.106Z,33.92
2023-02-13T12:00:35.932Z,34.42
2023-02-13T12:03:29.184Z,34.37
2023-02-13T12:06:14.285Z,34.46
2023-02-13T12:08:47.521Z,34.94
2023-02-13T12:11:35.894Z,34.84
2023-02-13T12:14:06.480Z,34.89
2023-02-13T12:16:51.020Z,35.37
2023-02-13T12:19:44.156Z,35.38
2023-02-13T12:22:51.009Z,35.60
2023-02-13T12:25:49.739Z,35.74
2023-02-13T12:28:41.421Z,35.99
2023-02-13T12:31:38.002Z,35.98
2023-02-13T12:34:23.159Z,36.50
2023-02-13T12:36:58.635Z,36.31
2023-02-13T12:39:36.057Z,36.49
2023-02-13T12:42:32.119Z,35.78
2023-02-13T12:45:28.698Z,35.07
2023-02-13T12:48:14.193Z,35.29
2023-02-13T12:51:12.016Z,35.03
2023-02-13T12:54:30.116Z,34.75
2023-02-13T12:57:16.227Z,34.58
2023-02-13T12:59:57.191Z,34.46
2023-02-13T13:02:50.744Z,34.37
2023-02-13T13:05:35.516Z,34.68
2023-02-13T13:08:40.154Z,34.69
2023-02-13T13:11:27.696Z,34.79
2023-02-13T13:14:18.715Z,35.01
2023-02-13T13:17:21.695Z,34.65
2023-02-13T13:20:09.122Z,34.26
2023-02-13T13:22:53.160Z,34.48
2023-02-13T13:25:29.868Z,34.30
2023-02-13T13:28:12.722Z,34.49
2023-02-13T13:30:47.535Z,34.74
2023-02-13T13:33:23.186Z,34.39
2023-02-13T13:36:09.025Z,34.00
2023-02-13T13:39:01.408Z,33.55
2023-02-13T13:41:43.235Z,32.97
2023-02-13T13:44:48.347Z,32.63
2023-02-13T13:47:39.928Z,32.62
2023-02-13T13:50:27.974Z,32.01
2023-02-13T13:53:25.999Z,31.49
2023-02-13T13:55:59.888Z,31.75
2023-02-13T13:58:40.805Z,31.89
2023-02-13T14:01:29.898Z,32.26
2023-02-13T14:04:04.519Z,32.79
2023-02-13T14:06:49.040Z,33.08
2023-02-13T14:09:30.746Z,32.68
2023-02-13T14:12:26.436Z,32.54
2023-02-13T14:14:59.347Z,32.09
2023-02-13T14:17:47.620Z,32.22
2023-02-13T14:20:44.663Z,32.18
2023-02-13T14:23:36.935Z,31.97
2023-02-13T14:26:27.916Z,31.40
2023-02-13T14:29:23.382Z,31.15
2023-02-13T14:32:32.960Z,30.91
2023-02-13T14:35:23.358Z,30.98
2023-02-13T14:38:00.867Z,30.56
2023-02-13T14:40:49.353Z,30.64
2023-02-13T14:43:39.790Z,30.61
2023-02-13T14:46:17.569Z,30.46
2023-02-13T14:49:02.141Z,30.66
2023-02-13T14:51:41.433Z,30.33
2023-02-13T14:54:22.560Z,30.60
2023-02-13T14:56:58.393Z,30.57
2023-02-13T14:59:35.853Z,31.19
2023-02-13T15:02:31.566Z,31.70
2023-02-13T15:05:12.651Z,32.21
2023-02-13T15:07:53.895Z,33.14
2023-02-13T15:10:44.479Z,33.71
2023-02-13T15:13:23.415Z,34.63
2023-02-13T15:16:13.992Z,35.49
2023-02-13T15:18:52.994Z,36.60
2023-02-13T15:21:34.228Z,37.29
2023-02-13T15:24:04.388Z,38.44
2023-02-13T15:26:34.995Z,39.05
2023-02-13T15:29:27.729Z,39.57
2023-02-13T15:32:01.371Z,40.70
2023-02-13T15:34:37.809Z,41.42
2023-02-13T15:37:28.997Z,42.70
2023-02-13T15:40:42.276Z,42.70
2023-02-13T15:43:49.768Z,44.15
2023-02-13T15:46:46.533Z,44.85
2023-02-13T15:49:34.650Z,45.60
2023-02-13T15:52:22.469Z,45.78
2023-02-13T15:55:20.571Z,47.00
2023-02-13T15:58:02.886Z,47.08
2023-02-13T16:00:37.952Z,47.35
2023-02-13T16:03:15.803Z,48.89
2023-02-13T16:05:56.812Z,48.82
2023-02-13T16:08:47.717Z,48.25
2023-02-13T16:11:17.029Z,49.69
2023-02-13T16:14:25.266Z,49.79
2023-02-13T16:16:57.229Z,50.19
2023-02-13T16:19:51.207Z,51.26
2023-02-13T16:22:33.350Z,50.57
2023-02-13T16:25:18.812Z,52.35
2023-02-13T16:28:15.842Z,53.25
2023-02-13T16:31:02.996Z,53.70
2023-02-13T16:33:44.811Z,52.14
2023-02-13T16:36:13.858Z,52.09
2023-02-13T16:38:53.875Z,53.83
2023-02-13T16:41:41.214Z,53.52
2023-02-13T16:44:42.218Z,54.81
2023-02-13T16:47:33.106Z,54.20
2023-02-13T16:50:23.814Z,55.88
2023-02-13T16:53:05.439Z,55.11
2023-02-13T16:55:34.559Z,55.55
2023-02-13T16:58:20.111Z,55.14
2023-02-13T17:01:06.707Z,55.16
2023-02-13T17:04:17.020Z,54.55
2023-02-13T17:06:49.009Z,55.18
2023-02-13T17:09:27.332Z,55.95
2023-02-13T17:12:22.427Z,56.90
2023-02-13T17:15:22.185Z,57.56
2023-02-13T17:18:00.613Z,57.86
2023-02-13T17:20:57.780Z,59.63
2023-02-13T17:23:52.093Z,59.94
2023-02-13T17:26:24.665Z,60.63
2023-02-13T17:29:02.930Z,59.96
2023-02-13T17:31:41.627Z,61.81
2023-02-13T17:34:20.120Z,61.15
2023-02-13T17:37:43.257Z,60.66
2023-02-13T17:40:35.393Z,62.21
2023-02-13T17:43:08.234Z,61.58
2023-02-13T17:45:37.670Z,61.41
2023-02-13T17:48:08.242Z,61.70
2023-02-13T17:50:55.345Z,62.46
2023-02-13T17:53:42.793Z,63.68
2023-02-13T17:56:12.496Z,62.45
2023-02-13T17:58:47.692Z,63.32
2023-02-13T18:01:28.542Z,63.82
2023-02-13T18:03:58.303Z,62.50
2023-02-13T18:06:29.465Z,63.48
2023-02-13T18:09:01.656Z,63.48
2023-02-13T18:11:36.711Z,64.20
2023-02-13T18:14:07.656Z,63.89
2023-02-13T18:16:38.582Z,63.88
2023-02-13T18:19:09.192Z,65.02
2023-02-13T18:21:42.085Z,66.06
2023-02-13T18:24:13.817Z,65.45
2023-02-13T18:26:43.826Z,64.52
2023-02-13T18:29:13.326Z,66.21
2023-02-13T18:31:43.974Z,66.48
2023-02-13T18:34:15.860Z,66.60
2023-02-13T18:36:48.663Z,66.87
2023-02-13T18:39:23.041Z,66.80
2023-02-13T18:41:52.739Z,67.27
2023-02-13T18:44:28.408Z,67.79
2023-02-13T18:47:03.207Z,68.05
2023-02-13T18:49:33.618Z,67.50
2023-02-13T18:52:07.310Z,67.58
2023-02-13T18:54:36.818Z,67.48
2023-02-13T18:57:07.611Z,68.65
2023-02-13T18:59:44.535Z,68.60
2023-02-13T19:02:14.227Z,68.85
2023-02-13T19:04:44.799Z,68.60
2023-02-13T19:07:14.663Z,68.44
2023-02-13T19:09:45.593Z,68.85
2023-02-13T19:12:15.925Z,68.16
2023-02-13T19:14:45.927Z,67.93
2023-02-13T19:17:16.382Z,67.61
2023-02-13T19:19:49.889Z,67.20
2023-02-13T19:22:19.521Z,67.35
2023-02-13T19:24:49.575Z,67.24
2023-02-13T19:27:19.333Z,68.36
2023-02-13T19:29:49.068Z,69.25
2023-02-13T19:32:18.627Z,69.41
2023-02-13T19:34:48.724Z,69.87
2023-02-13T19:37:19.464Z,70.38
2023-02-13T19:39:49.138Z,70.81
2023-02-13T19:42:19.195Z,71.21
2023-02-13T19:44:49.221Z,71.29
2023-02-13T19:47:23.490Z,71.29
2023-02-13T19:49:53.559Z,72.17
2023-02-13T19:52:22.817Z,72.09
2023-02-13T19:54:55.160Z,71.58
2023-02-13T19:57:25.329Z,71.53
2023-02-13T19:59:55.066Z,71.11
2023-02-13T20:02:27.673Z,71.04
2023-02-13T20:04:57.516Z,71.22
2023-02-13T20:07:27.171Z,71.38
2023-02-13T20:09:56.463Z,71.62
2023-02-13T20:12:26.605Z,71.80
2023-02-13T20:14:57.656Z,71.73
2023-02-13T20:17:27.144Z,71.40
2023-02-13T20:19:58.612Z,71.53
2023-02-13T20:22:33.229Z,71.60
2023-02-13T20:25:02.705Z,71.94
2023-02-13T20:30:16.720Z,71.90
2023-02-13T20:32:46.574Z,72.98
2023-02-13T20:35:17.091Z,73.03
2023-02-13T20:37:48.207Z,72.99
2023-02-13T20:40:18.338Z,73.02
2023-02-13T20:42:47.707Z,72.46
2023-02-13T20:45:17.621Z,73.25
2023-02-13T20:47:48.399Z,73.01
2023-02-13T20:50:19.856Z,72.70
2023-02-13T20:52:49.983Z,72.73
2023-02-13T20:55:19.895Z,73.42
2023-02-13T20:57:50.597Z,73.42
2023-02-13T21:00:20.567Z,73.10
2023-02-13T21:02:50.431Z,72.67
2023-02-13T21:05:20.805Z,72.82
2023-02-13T21:07:52.065Z,72.61
2023-02-13T21:10:22.807Z,72.20
2023-02-13T21:12:54.523Z,71.78
2023-02-13T21:15:28.768Z,71.98
2023-02-13T21:18:02.336Z,72.30
2023-02-13T21:20:32.926Z,72.06
2023-02-13T21:23:05.999Z,73.28
2023-02-13T21:25:41.294Z,72.92
2023-02-13T21:28:13.669Z,73.04
2023-02-13T21:30:44.057Z,73.12
2023-02-13T21:33:13.719Z,73.11
2023-02-13T21:35:43.918Z,73.25
2023-02-13T21:38:14.473Z,73.07
2023-02-13T21:40:43.669Z,72.76
2023-02-13T21:43:14.310Z,72.39
2023-02-13T21:45:44.836Z,72.25
2023-02-13T21:48:17.934Z,72.02
2023-02-13T21:50:47.695Z,71.95
2023-02-13T21:53:16.855Z,71.92
2023-02-13T21:55:49.436Z,71.94
2023-02-13T21:58:19.947Z,71.77
2023-02-13T22:00:50.641Z,71.80
2023-02-13T22:03:20.870Z,71.83
2023-02-13T22:05:51.123Z,71.59
2023-02-13T22:08:21.555Z,71.85
2023-02-13T22:10:57.853Z,71.68
2023-02-13T22:13:30.152Z,71.85
2023-02-13T22:16:02.452Z,71.48
2023-02-13T22:18:34.924Z,71.87
2023-02-13T22:21:16.830Z,72.09
2023-02-13T22:23:48.272Z,72.42
2023-02-13T22:26:20.778Z,72.29
2023-02-13T22:28:51.027Z,72.26
2023-02-13T22:31:25.269Z,72.59
2023-02-13T22:34:03.842Z,72.15
2023-02-13T22:36:41.379Z,72.09
2023-02-13T22:39:13.393Z,71.95
2023-02-13T22:41:46.330Z,71.90
2023-02-13T22:44:15.841Z,71.92
2023-02-13T22:46:45.682Z,71.58
2023-02-13T22:49:15.172Z,71.55
2023-02-13T22:51:47.096Z,71.39
2023-02-13T22:54:17.875Z,71.41
2023-02-13T22:56:47.477Z,71.20
2023-02-13T22:59:16.764Z,71.06
2023-02-13T23:01:47.472Z,71.08
2023-02-13T23:04:20.320Z,71.44
2023-02-13T23:06:50.862Z,71.98
2023-02-13T23:09:21.770Z,71.20
2023-02-13T23:12:10.877Z,71.39
2023-02-13T23:14:41.981Z,71.99
2023-02-13T23:17:30.406Z,71.94
2023-02-13T23:20:00.866Z,71.68
2023-02-13T23:22:31.007Z,70.85
2023-02-13T23:25:03.291Z,71.81
2023-02-13T23:27:35.126Z,72.81
2023-02-13T23:30:13.956Z,72.82
2023-02-13T23:32:44.308Z,72.72
2023-02-13T23:35:14.778Z,72.50
2023-02-13T23:37:45.339Z,72.50
2023-02-13T23:40:17.070Z,72.55
2023-02-13T23:42:46.938Z,71.46
2023-02-13T23:45:16.995Z,72.34
2023-02-13T23:47:47.527Z,72.66
2023-02-13T23:50:17.546Z,71.88
2023-02-13T23:52:48.520Z,71.64
2023-02-13T23:55:19.374Z,72.33
2023-02-13T23:57:52.662Z,71.95
